createdAt,value
2023-04-02T00:01:38.176Z,43.90
2023-04-02T00:04:30.382Z,44.20
2023-04-02T00:07:30.969Z,44.30
2023-04-02T00:10:31.126Z,44.50
2023-04-02T00:13:25.956Z,44.40
2023-04-02T00:16:18.933Z,44.10
2023-04-02T00:19:14.561Z,43.90
2023-04-02T00:22:06.211Z,43.90
2023-04-02T00:24:57.438Z,43.90
2023-04-02T00:27:46.217Z,43.70
2023-04-02T00:30:34.843Z,43.80
2023-04-02T00:33:25.651Z,43.80
2023-04-02T00:36:14.665Z,43.90
2023-04-02T00:39:12.153Z,43.80
2023-04-02T00:42:06.107Z,43.90
2023-04-02T00:44:56.181Z,43.90
2023-04-02T00:47:44.812Z,43.70
2023-04-02T00:50:37.882Z,43.60
2023-04-02T00:53:28.829Z,43.50
2023-04-02T00:56:25.787Z,43.50
2023-04-02T00:59:21.997Z,43.40
2023-04-02T01:02:28.400Z,43.20
2023-04-02T01:05:24.025Z,42.90
2023-04-02T01:08:19.907Z,43.30
2023-04-02T01:11:28.618Z,43.50
2023-04-02T01:14:28.052Z,43.60
2023-04-02T01:17:32.805Z,43.60
2023-04-02T01:21:01.993Z,43.40
2023-04-02T01:24:04.549Z,43.20
2023-04-02T01:26:58.833Z,43.10
2023-04-02T01:29:53.421Z,43.30
2023-04-02T01:32:43.929Z,43.10
2023-04-02T01:35:38.854Z,42.90
2023-04-02T01:38:32.054Z,42.80
2023-04-02T01:41:29.804Z,42.80
2023-04-02T01:44:22.760Z,42.70
2023-04-02T01:47:15.289Z,42.40
2023-04-02T01:50:13.150Z,42.60
2023-04-02T01:53:04.252Z,42.70
2023-04-02T01:55:54.908Z,42.60
2023-04-02T01:58:43.558Z,42.60
2023-04-02T02:01:37.212Z,42.50
2023-04-02T02:04:27.505Z,42.40
2023-04-02T02:07:17.937Z,42.30
2023-04-02T02:10:07.622Z,42.20
2023-04-02T02:12:56.918Z,42.40
2023-04-02T02:15:45.926Z,42.60
2023-04-02T02:18:34.821Z,42.70
2023-04-02T02:21:37.133Z,42.60
2023-04-02T02:24:29.007Z,42.90
2023-04-02T02:27:43.703Z,43.00
2023-04-02T02:30:36.322Z,42.70
2023-04-02T02:33:28.440Z,42.40
2023-04-02T02:36:24.149Z,42.40
2023-04-02T02:39:19.020Z,42.50
2023-04-02T02:42:14.324Z,42.40
2023-04-02T02:45:06.782Z,42.70
2023-04-02T02:47:57.371Z,43.00
2023-04-02T02:50:47.049Z,43.40
2023-04-02T02:53:46.541Z,43.30
2023-04-02T02:56:43.470Z,43.00
2023-04-02T02:59:33.418Z,42.70
2023-04-02T03:02:22.108Z,42.50
2023-04-02T03:05:16.840Z,42.30
2023-04-02T03:08:08.321Z,42.30
2023-04-02T03:11:03.517Z,42.10
2023-04-02T03:13:57.327Z,41.90
2023-04-02T03:16:50.442Z,41.80
2023-04-02T03:19:46.330Z,41.70
2023-04-02T03:22:39.931Z,41.70
2023-04-02T03:25:34.705Z,41.70
2023-04-02T03:28:28.796Z,41.80
2023-04-02T03:31:25.681Z,41.60
2023-04-02T03:34:21.645Z,41.50
2023-04-02T03:37:18.243Z,41.50
2023-04-02T03:40:12.036Z,41.50
2023-04-02T03:43:04.305Z,41.40
2023-04-02T03:45:57.858Z,41.40
2023-04-02T03:48:52.704Z,41.60
2023-04-02T03:51:54.584Z,41.50
2023-04-02T03:54:54.138Z,41.40
2023-04-02T03:57:48.823Z,41.40
2023-04-02T04:00:43.689Z,41.70
2023-04-02T04:03:40.438Z,41.90
2023-04-02T04:06:32.713Z,41.90
2023-04-02T04:09:26.343Z,41.70
2023-04-02T04:12:25.021Z,41.70
2023-04-02T04:15:21.279Z,41.60
2023-04-02T04:18:20.110Z,41.40
2023-04-02T04:21:17.082Z,41.30
2023-04-02T04:24:14.107Z,41.30
2023-04-02T04:27:10.544Z,41.50
2023-04-02T04:30:06.343Z,41.40
2023-04-02T04:32:58.618Z,41.50
2023-04-02T04:35:50.841Z,41.50
2023-04-02T04:38:44.345Z,41.40
2023-04-02T04:41:37.973Z,41.20
2023-04-02T04:44:34.180Z,41.20
2023-04-02T04:47:31.154Z,41.00
2023-04-02T04:50:27.450Z,40.90
2023-04-02T04:53:18.515Z,40.80
2023-04-02T04:56:18.446Z,40.80
2023-04-02T04:59:19.293Z,40.80
2023-04-02T05:02:12.747Z,40.80
2023-04-02T05:05:03.700Z,40.80
2023-04-02T05:07:59.158Z,40.70
2023-04-02T05:10:53.289Z,40.80
2023-04-02T05:13:50.539Z,40.70
2023-04-02T05:16:43.574Z,40.80
2023-04-02T05:19:40.279Z,40.80
2023-04-02T05:22:36.186Z,40.80
2023-04-02T05:25:28.418Z,40.80
2023-04-02T05:28:21.104Z,40.80
2023-04-02T05:31:13.532Z,40.90
2023-04-02T05:34:04.144Z,41.00
2023-04-02T05:36:53.952Z,40.90
2023-04-02T05:39:47.218Z,41.10
2023-04-02T05:42:38.427Z,41.00
2023-04-02T05:45:32.521Z,40.90
2023-04-02T05:48:27.706Z,40.80
2023-04-02T05:51:23.258Z,40.70
2023-04-02T05:54:23.431Z,40.70
2023-04-02T05:57:18.945Z,40.70
2023-04-02T06:00:14.908Z,40.70
2023-04-02T06:03:13.773Z,40.70
2023-04-02T06:06:08.062Z,40.70
2023-04-02T06:09:03.862Z,40.70
2023-04-02T06:11:58.106Z,40.70
2023-04-02T06:14:47.408Z,40.70
2023-04-02T06:17:47.927Z,40.60
2023-04-02T06:20:36.904Z,40.60
2023-04-02T06:23:31.409Z,40.60
2023-04-02T06:26:26.272Z,40.60
2023-04-02T06:29:21.279Z,40.60
2023-04-02T06:32:12.289Z,40.60
2023-04-02T06:35:00.942Z,40.50
2023-04-02T06:37:52.062Z,40.50
2023-04-02T06:40:43.945Z,40.40
2023-04-02T06:43:38.646Z,40.30
2023-04-02T06:46:32.753Z,40.20
2023-04-02T06:49:26.904Z,40.10
2023-04-02T06:52:20.544Z,39.90
2023-04-02T06:55:27.377Z,39.80
2023-04-02T06:58:17.106Z,39.80
2023-04-02T07:01:07.203Z,39.40
2023-04-02T07:03:56.727Z,39.10
2023-04-02T07:06:45.317Z,39.00
2023-04-02T07:09:33.970Z,39.00
2023-04-02T07:12:25.815Z,38.80
2023-04-02T07:15:17.485Z,38.70
2023-04-02T07:18:07.700Z,38.60
2023-04-02T07:20:56.905Z,38.30
2023-04-02T07:23:45.657Z,38.10
2023-04-02T07:26:34.533Z,37.90
2023-04-02T07:29:23.322Z,37.00
2023-04-02T07:32:12.723Z,36.80
2023-04-02T07:35:02.942Z,36.80
2023-04-02T07:37:53.035Z,36.90
2023-04-02T07:40:41.751Z,36.80
2023-04-02T07:43:30.290Z,36.70
2023-04-02T07:46:20.362Z,36.60
2023-04-02T07:49:08.973Z,36.50
2023-04-02T07:51:59.050Z,36.30
2023-04-02T07:54:47.567Z,36.40
2023-04-02T07:57:43.167Z,36.40
2023-04-02T08:00:33.769Z,36.30
2023-04-02T08:03:23.192Z,36.50
2023-04-02T08:06:12.255Z,36.40
2023-04-02T08:09:02.192Z,36.40
2023-04-02T08:11:51.102Z,36.40
2023-04-02T08:14:39.790Z,37.90
2023-04-02T08:17:31.334Z,40.40
2023-04-02T08:20:22.285Z,41.00
2023-04-02T08:23:18.284Z,40.90
2023-04-02T08:26:08.536Z,39.80
2023-04-02T08:28:57.228Z,39.20
2023-04-02T08:31:45.874Z,38.70
2023-04-02T08:34:34.661Z,38.40
2023-04-02T08:37:23.704Z,38.10
2023-04-02T08:40:23.741Z,37.80
2023-04-02T08:43:25.736Z,36.90
2023-04-02T08:46:24.895Z,36.90
2023-04-02T08:49:15.928Z,39.80
2023-04-02T08:52:05.421Z,40.80
2023-04-02T08:54:56.276Z,40.70
2023-04-02T08:57:51.158Z,40.40
2023-04-02T09:00:43.229Z,40.40
2023-04-02T09:03:36.879Z,40.40
2023-04-02T09:06:28.045Z,39.90
2023-04-02T09:09:17.628Z,39.20
2023-04-02T09:12:08.296Z,38.60
2023-04-02T09:15:11.908Z,38.10
2023-04-02T09:18:07.899Z,37.70
2023-04-02T09:20:56.895Z,37.60
2023-04-02T09:23:46.760Z,37.20
2023-04-02T09:26:36.237Z,37.10
2023-04-02T09:29:42.070Z,37.10
2023-04-02T09:32:49.336Z,36.70
2023-04-02T09:35:56.565Z,35.90
2023-04-02T09:38:59.845Z,35.70
2023-04-02T09:42:02.865Z,35.10
2023-04-02T09:44:54.298Z,35.40
2023-04-02T09:47:43.298Z,35.20
2023-04-02T09:50:33.731Z,34.90
2023-04-02T09:53:34.569Z,34.40
2023-04-02T09:56:26.688Z,33.50
2023-04-02T09:59:17.460Z,33.70
2023-04-02T10:02:24.338Z,33.30
2023-04-02T10:05:30.091Z,32.80
2023-04-02T10:08:29.450Z,32.30
2023-04-02T10:11:30.929Z,32.50
2023-04-02T10:14:29.288Z,32.40
2023-04-02T10:17:23.630Z,32.10
2023-04-02T10:20:21.261Z,31.80
2023-04-02T10:23:16.787Z,31.40
2023-04-02T10:26:43.559Z,31.40
2023-04-02T10:29:51.681Z,30.90
2023-04-02T10:32:46.698Z,30.40
2023-04-02T10:35:47.310Z,30.90
2023-04-02T10:38:43.149Z,30.80
2023-04-02T10:41:36.672Z,31.00
2023-04-02T10:44:45.107Z,31.20
2023-04-02T10:47:41.465Z,30.80
2023-04-02T10:50:39.136Z,31.20
2023-04-02T10:53:34.676Z,31.40
2023-04-02T10:56:24.355Z,31.40
2023-04-02T10:59:20.789Z,31.20
2023-04-02T11:02:32.522Z,31.10
2023-04-02T11:05:28.520Z,30.80
2023-04-02T11:08:22.188Z,30.80
2023-04-02T11:11:15.780Z,30.60
2023-04-02T11:14:10.813Z,30.30
2023-04-02T11:17:03.176Z,30.40
2023-04-02T11:19:54.480Z,30.50
2023-04-02T11:22:42.960Z,30.50
2023-04-02T11:25:31.596Z,30.50
2023-04-02T11:28:30.278Z,30.70
2023-04-02T11:31:22.980Z,30.60
2023-04-02T11:34:15.860Z,30.90
2023-04-02T11:37:11.261Z,30.90
2023-04-02T11:40:00.494Z,30.70
2023-04-02T11:42:49.904Z,30.70
2023-04-02T11:45:55.693Z,30.60
2023-04-02T11:48:44.626Z,30.20
2023-04-02T11:51:56.370Z,30.20
2023-04-02T11:55:17.219Z,29.90
2023-04-02T11:58:43.247Z,29.60
2023-04-02T12:01:45.331Z,29.20
2023-04-02T12:05:04.530Z,29.30
2023-04-02T12:08:05.983Z,29.10
2023-04-02T12:10:59.087Z,29.20
2023-04-02T12:13:52.431Z,29.20
2023-04-02T12:16:41.291Z,29.30
2023-04-02T12:19:31.814Z,29.50
2023-04-02T12:22:23.591Z,29.60
2023-04-02T12:25:27.185Z,29.70
2023-04-02T12:28:22.481Z,29.60
2023-04-02T12:31:17.969Z,30.00
2023-04-02T12:34:14.490Z,30.10
2023-04-02T12:37:07.253Z,30.20
2023-04-02T12:39:58.299Z,30.20
2023-04-02T12:42:47.069Z,30.10
2023-04-02T12:45:37.563Z,30.10
2023-04-02T12:48:27.440Z,29.90
2023-04-02T12:54:05.473Z,29.70
2023-04-02T12:56:55.715Z,29.50
2023-04-02T12:59:46.248Z,29.50
2023-04-02T13:02:46.699Z,29.40
2023-04-02T13:05:39.805Z,28.90
2023-04-02T13:08:31.159Z,29.00
2023-04-02T13:11:20.429Z,29.00
2023-04-02T13:14:17.938Z,28.80
2023-04-02T13:17:43.910Z,28.80
2023-04-02T13:20:35.584Z,28.20
2023-04-02T13:23:37.779Z,28.80
2023-04-02T13:26:28.699Z,28.80
2023-04-02T13:29:26.565Z,29.00
2023-04-02T13:32:15.240Z,28.90
2023-04-02T13:35:05.726Z,29.20
2023-04-02T13:37:54.551Z,29.20
2023-04-02T13:40:43.236Z,29.20
2023-04-02T13:43:31.958Z,28.80
2023-04-02T13:46:23.646Z,28.70
2023-04-02T13:49:12.637Z,28.60
2023-04-02T13:52:05.243Z,28.60
2023-04-02T13:54:58.658Z,28.50
2023-04-02T13:57:47.530Z,28.70
2023-04-02T14:00:38.971Z,28.80
2023-04-02T14:03:27.695Z,28.90
2023-04-02T14:06:22.147Z,28.80
2023-04-02T14:09:22.173Z,28.90
2023-04-02T14:12:18.256Z,29.00
2023-04-02T14:15:24.365Z,29.20
2023-04-02T14:18:26.310Z,28.90
2023-04-02T14:21:25.697Z,29.10
2023-04-02T14:24:25.831Z,29.10
2023-04-02T14:27:24.246Z,29.20
2023-04-02T14:30:19.468Z,29.20
2023-04-02T14:33:17.503Z,29.20
2023-04-02T14:36:14.607Z,29.20
2023-04-02T14:39:11.672Z,29.10
2023-04-02T14:42:07.801Z,29.10
2023-04-02T14:45:02.943Z,29.30
2023-04-02T14:47:56.293Z,29.40
2023-04-02T14:50:45.115Z,29.40
2023-04-02T14:53:43.876Z,29.40
2023-04-02T14:56:39.625Z,29.30
2023-04-02T14:59:33.990Z,29.40
2023-04-02T15:02:29.428Z,29.40
2023-04-02T15:05:21.478Z,29.50
2023-04-02T15:08:20.698Z,29.50
2023-04-02T15:11:16.337Z,29.40
2023-04-02T15:14:12.230Z,29.50
2023-04-02T15:17:02.099Z,29.50
2023-04-02T15:19:56.581Z,29.60
2023-04-02T15:22:54.411Z,29.60
2023-04-02T15:25:48.487Z,29.60
2023-04-02T15:28:42.838Z,29.70
2023-04-02T15:31:34.066Z,29.70
2023-04-02T15:34:33.215Z,29.80
2023-04-02T15:37:29.637Z,29.80
2023-04-02T15:40:33.310Z,29.90
2023-04-02T15:43:26.395Z,29.90
2023-04-02T15:46:23.496Z,30.10
2023-04-02T15:49:31.586Z,30.10
2023-04-02T15:52:30.515Z,30.20
2023-04-02T15:55:26.893Z,30.30
2023-04-02T15:58:25.864Z,30.30
2023-04-02T16:01:26.624Z,30.30
2023-04-02T16:04:37.609Z,30.40
2023-04-02T16:07:45.187Z,31.70
2023-04-02T16:10:42.109Z,32.40
2023-04-02T16:13:34.337Z,32.80
2023-04-02T16:16:26.883Z,33.10
2023-04-02T16:19:24.873Z,33.30
2023-04-02T16:22:21.430Z,33.40
2023-04-02T16:25:19.383Z,33.50
2023-04-02T16:28:19.794Z,33.60
2023-04-02T16:31:15.703Z,33.90
2023-04-02T16:34:14.301Z,33.90
2023-04-02T16:37:12.890Z,34.00
2023-04-02T16:40:10.475Z,34.40
2023-04-02T16:43:05.192Z,34.60
2023-04-02T16:46:04.324Z,34.60
2023-04-02T16:49:01.095Z,34.50
2023-04-02T16:51:57.904Z,34.40
2023-04-02T16:54:56.230Z,34.40
2023-04-02T16:57:51.900Z,33.60
2023-04-02T17:00:48.185Z,33.30
2023-04-02T17:04:00.846Z,33.10
2023-04-02T17:06:56.914Z,32.70
2023-04-02T17:09:51.323Z,32.50
2023-04-02T17:12:47.236Z,32.30
2023-04-02T17:15:39.464Z,32.20
2023-04-02T17:18:29.610Z,32.00
2023-04-02T17:21:21.581Z,32.00
2023-04-02T17:24:21.025Z,31.80
2023-04-02T17:27:18.786Z,31.90
2023-04-02T17:30:17.448Z,31.90
2023-04-02T17:33:12.620Z,32.00
2023-04-02T17:36:25.116Z,32.10
2023-04-02T17:39:21.418Z,32.10
2023-04-02T17:42:17.060Z,32.30
2023-04-02T17:45:13.348Z,32.30
2023-04-02T17:48:07.066Z,32.40
2023-04-02T17:51:08.544Z,32.40
2023-04-02T17:54:10.235Z,32.40
2023-04-02T17:57:12.437Z,32.50
2023-04-02T18:00:21.529Z,32.70
2023-04-02T18:03:28.736Z,32.70
2023-04-02T18:06:23.281Z,32.80
2023-04-02T18:09:35.517Z,32.90
2023-04-02T18:12:34.237Z,33.00
2023-04-02T18:15:49.682Z,33.00
2023-04-02T18:18:50.365Z,33.10
2023-04-02T18:21:46.429Z,33.10
2023-04-02T18:24:52.957Z,33.20
2023-04-02T18:28:00.867Z,33.10
2023-04-02T18:30:56.162Z,33.20
2023-04-02T18:34:06.309Z,33.30
2023-04-02T18:37:06.300Z,33.40
2023-04-02T18:40:32.060Z,33.40
2023-04-02T18:43:34.324Z,33.50
2023-04-02T18:46:32.700Z,33.60
2023-04-02T18:49:29.986Z,33.60
2023-04-02T18:52:20.352Z,33.70
2023-04-02T18:55:17.342Z,33.70
2023-04-02T18:58:12.489Z,33.80
2023-04-02T19:01:01.894Z,33.90
2023-04-02T19:03:53.248Z,33.90
2023-04-02T19:06:47.471Z,33.90
2023-04-02T19:09:41.142Z,34.00
2023-04-02T19:12:34.147Z,34.00
2023-04-02T19:15:24.634Z,34.10
2023-04-02T19:18:22.031Z,34.10
2023-04-02T19:21:17.224Z,34.10
2023-04-02T19:24:29.049Z,34.20
2023-04-02T19:27:24.713Z,34.20
2023-04-02T19:30:41.869Z,34.30
2023-04-02T19:33:41.815Z,34.30
2023-04-02T19:36:43.161Z,34.30
2023-04-02T19:40:02.908Z,34.40
2023-04-02T19:42:53.264Z,34.40
2023-04-02T19:45:45.789Z,34.60
2023-04-02T19:48:43.324Z,34.70
2023-04-02T19:51:31.982Z,34.70
2023-04-02T19:54:20.605Z,34.80
2023-04-02T19:57:09.135Z,34.80
2023-04-02T19:59:57.579Z,34.90
2023-04-02T20:02:47.628Z,35.00
2023-04-02T20:05:36.220Z,35.00
2023-04-02T20:08:24.861Z,35.00
2023-04-02T20:11:13.465Z,35.10
2023-04-02T20:14:02.657Z,35.00
2023-04-02T20:16:51.267Z,35.00
2023-04-02T20:19:41.478Z,35.00
2023-04-02T20:22:30.202Z,35.00
2023-04-02T20:25:18.715Z,35.00
2023-04-02T20:28:07.672Z,35.00
2023-04-02T20:31:06.850Z,35.10
2023-04-02T20:33:56.466Z,35.10
2023-04-02T20:36:46.823Z,35.10
2023-04-02T20:39:35.579Z,35.10
2023-04-02T20:42:24.099Z,35.10
2023-04-02T20:45:12.887Z,35.10
2023-04-02T20:48:01.630Z,35.00
2023-04-02T20:50:50.221Z,35.00
2023-04-02T20:53:40.365Z,35.00
2023-04-02T20:56:29.586Z,35.10
2023-04-02T20:59:18.392Z,35.10
2023-04-02T21:02:07.011Z,35.10
2023-04-02T21:04:56.307Z,35.10
2023-04-02T21:07:45.549Z,35.10
2023-04-02T21:10:35.863Z,35.00
2023-04-02T21:13:24.784Z,35.10
2023-04-02T21:16:16.226Z,35.10
2023-04-02T21:19:06.761Z,35.10
2023-04-02T21:21:56.301Z,35.10
2023-04-02T21:24:45.179Z,35.10
2023-04-02T21:27:35.538Z,35.00
2023-04-02T21:30:24.059Z,35.10
2023-04-02T21:33:12.548Z,35.10
2023-04-02T21:36:07.382Z,35.10
2023-04-02T21:38:59.022Z,35.20
2023-04-02T21:41:50.605Z,35.30
2023-04-02T21:44:40.609Z,35.20
2023-04-02T21:47:29.178Z,35.20
2023-04-02T21:50:17.610Z,35.20
2023-04-02T21:53:06.285Z,35.20
2023-04-02T21:56:02.559Z,35.10
2023-04-02T21:58:52.352Z,35.20
2023-04-02T22:01:43.786Z,35.20
2023-04-02T22:04:33.537Z,35.30
2023-04-02T22:07:22.100Z,35.20
2023-04-02T22:10:10.916Z,35.10
2023-04-02T22:12:59.408Z,35.20
2023-04-02T22:15:47.894Z,35.30
2023-04-02T22:18:38.791Z,35.30
2023-04-02T22:21:27.974Z,35.40
2023-04-02T22:24:22.270Z,35.40
2023-04-02T22:27:11.208Z,35.30
2023-04-02T22:29:59.828Z,35.30
2023-04-02T22:32:48.645Z,35.30
2023-04-02T22:35:39.338Z,35.30
2023-04-02T22:38:28.051Z,35.30
2023-04-02T22:41:18.280Z,42.80
2023-04-02T22:44:07.033Z,42.10
2023-04-02T22:46:55.663Z,41.00
2023-04-02T22:49:44.275Z,41.00
2023-04-02T22:52:34.033Z,40.50
2023-04-02T22:55:22.948Z,40.10
2023-04-02T22:58:11.445Z,39.80
2023-04-02T23:01:05.027Z,39.60
2023-04-02T23:03:55.337Z,39.40
2023-04-02T23:06:43.994Z,39.20
2023-04-02T23:09:33.880Z,39.10
2023-04-02T23:12:22.487Z,39.10
2023-04-02T23:15:11.987Z,38.80
2023-04-02T23:18:00.503Z,38.70
2023-04-02T23:20:48.954Z,38.60
2023-04-02T23:23:39.152Z,38.50
2023-04-02T23:26:31.538Z,38.30
2023-04-02T23:29:20.264Z,38.30
2023-04-02T23:32:08.972Z,38.20
2023-04-02T23:34:57.579Z,38.10
2023-04-02T23:37:46.039Z,38.10
2023-04-02T23:40:34.805Z,38.00
2023-04-02T23:43:24.815Z,38.00
2023-04-02T23:46:13.485Z,38.00
2023-04-02T23:49:04.288Z,37.90
2023-04-02T23:51:53.201Z,37.90
2023-04-02T23:54:41.636Z,37.90
2023-04-02T23:57:30.186Z,37.90
